sensor_id;sensor_type;location;lat;lon;timestamp;P1;durP1;ratioP1;P2;durP2;ratioP2
44165;SDS011;30476;53.468;9.826;2023-06-04T00:00:43;2.20;;;2.00;;
44165;SDS011;30476;53.468;9.826;2023-06-04T00:03:09;2.07;;;1.70;;
44165;SDS011;30476;53.468;9.826;2023-06-04T00:05:35;1.80;;;1.70;;
44165;SDS011;30476;53.468;9.826;2023-06-04T00:08:01;2.47;;;2.27;;
44165;SDS011;30476;53.468;9.826;2023-06-04T00:10:27;1.80;;;1.70;;
44165;SDS011;30476;53.468;9.826;2023-06-04T00:12:52;1.83;;;1.70;;
44165;SDS011;30476;53.468;9.826;2023-06-04T00:15:18;1.40;;;1.30;;
44165;SDS011;30476;53.468;9.826;2023-06-04T00:17:44;1.70;;;1.60;;
44165;SDS011;30476;53.468;9.826;2023-06-04T00:20:10;2.13;;;1.90;;
44165;SDS011;30476;53.468;9.826;2023-06-04T00:22:37;1.93;;;1.80;;
44165;SDS011;30476;53.468;9.826;2023-06-04T00:25:03;1.90;;;1.60;;
44165;SDS011;30476;53.468;9.826;2023-06-04T00:27:29;2.00;;;1.90;;
44165;SDS011;30476;53.468;9.826;2023-06-04T00:29:55;1.63;;;1.50;;
44165;SDS011;30476;53.468;9.826;2023-06-04T00:32:20;1.70;;;1.60;;
44165;SDS011;30476;53.468;9.826;2023-06-04T00:34:53;1.60;;;1.50;;
44165;SDS011;30476;53.468;9.826;2023-06-04T00:37:24;1.60;;;1.50;;
44165;SDS011;30476;53.468;9.826;2023-06-04T00:39:50;2.70;;;1.77;;
44165;SDS011;30476;53.468;9.826;2023-06-04T00:42:16;2.10;;;2.00;;
44165;SDS011;30476;53.468;9.826;2023-06-04T00:44:42;1.97;;;1.37;;
44165;SDS011;30476;53.468;9.826;2023-06-04T00:47:14;1.60;;;1.50;;
44165;SDS011;30476;53.468;9.826;2023-06-04T00:49:40;1.90;;;1.80;;
44165;SDS011;30476;53.468;9.826;2023-06-04T00:52:10;2.10;;;1.43;;
44165;SDS011;30476;53.468;9.826;2023-06-04T00:54:37;1.87;;;1.77;;
44165;SDS011;30476;53.468;9.826;2023-06-04T00:57:04;1.83;;;1.73;;
44165;SDS011;30476;53.468;9.826;2023-06-04T00:59:31;1.50;;;1.40;;
44165;SDS011;30476;53.468;9.826;2023-06-04T01:02:02;1.67;;;1.57;;
44165;SDS011;30476;53.468;9.826;2023-06-04T01:04:54;2.70;;;1.57;;
44165;SDS011;30476;53.468;9.826;2023-06-04T01:07:21;2.17;;;1.60;;
44165;SDS011;30476;53.468;9.826;2023-06-04T01:09:48;2.57;;;1.30;;
44165;SDS011;30476;53.468;9.826;2023-06-04T01:12:14;1.70;;;1.60;;
44165;SDS011;30476;53.468;9.826;2023-06-04T01:14:41;1.77;;;1.67;;
44165;SDS011;30476;53.468;9.826;2023-06-04T01:17:11;2.03;;;1.87;;
44165;SDS011;30476;53.468;9.826;2023-06-04T01:25:14;1.43;;;1.33;;
44165;SDS011;30476;53.468;9.826;2023-06-04T01:27:49;2.13;;;2.00;;
44165;SDS011;30476;53.468;9.826;2023-06-04T01:30:23;2.47;;;2.27;;
44165;SDS011;30476;53.468;9.826;2023-06-04T01:32:50;1.97;;;1.87;;
44165;SDS011;30476;53.468;9.826;2023-06-04T01:35:20;2.00;;;1.90;;
44165;SDS011;30476;53.468;9.826;2023-06-04T01:37:46;2.00;;;1.80;;
44165;SDS011;30476;53.468;9.826;2023-06-04T01:40:12;1.97;;;1.87;;
44165;SDS011;30476;53.468;9.826;2023-06-04T01:42:40;2.10;;;1.97;;
44165;SDS011;30476;53.468;9.826;2023-06-04T01:45:06;2.27;;;1.80;;
44165;SDS011;30476;53.468;9.826;2023-06-04T01:47:32;2.70;;;1.60;;
44165;SDS011;30476;53.468;9.826;2023-06-04T01:49:59;2.10;;;1.83;;
44165;SDS011;30476;53.468;9.826;2023-06-04T01:52:24;3.03;;;2.17;;
44165;SDS011;30476;53.468;9.826;2023-06-04T01:54:50;1.67;;;1.57;;
44165;SDS011;30476;53.468;9.826;2023-06-04T01:57:21;1.80;;;1.63;;
44165;SDS011;30476;53.468;9.826;2023-06-04T01:59:47;2.60;;;1.70;;
44165;SDS011;30476;53.468;9.826;2023-06-04T02:02:13;2.20;;;2.00;;
44165;SDS011;30476;53.468;9.826;2023-06-04T02:04:40;2.10;;;1.57;;
44165;SDS011;30476;53.468;9.826;2023-06-04T02:07:10;2.17;;;1.97;;
44165;SDS011;30476;53.468;9.826;2023-06-04T02:09:36;2.07;;;1.90;;
44165;SDS011;30476;53.468;9.826;2023-06-04T02:12:02;2.27;;;1.70;;
44165;SDS011;30476;53.468;9.826;2023-06-04T02:14:28;3.23;;;1.87;;
44165;SDS011;30476;53.468;9.826;2023-06-04T02:16:54;2.27;;;2.17;;
44165;SDS011;30476;53.468;9.826;2023-06-04T02:19:26;1.73;;;1.63;;
44165;SDS011;30476;53.468;9.826;2023-06-04T02:21:52;1.87;;;1.77;;
44165;SDS011;30476;53.468;9.826;2023-06-04T02:24:19;2.70;;;1.77;;
44165;SDS011;30476;53.468;9.826;2023-06-04T02:26:44;1.87;;;1.77;;
44165;SDS011;30476;53.468;9.826;2023-06-04T02:29:11;1.83;;;1.73;;
44165;SDS011;30476;53.468;9.826;2023-06-04T02:31:37;2.23;;;1.80;;
44165;SDS011;30476;53.468;9.826;2023-06-04T02:34:03;1.90;;;1.80;;
44165;SDS011;30476;53.468;9.826;2023-06-04T02:36:29;2.90;;;2.03;;
44165;SDS011;30476;53.468;9.826;2023-06-04T02:38:55;1.70;;;1.60;;
44165;SDS011;30476;53.468;9.826;2023-06-04T02:41:21;2.03;;;1.60;;
44165;SDS011;30476;53.468;9.826;2023-06-04T02:43:48;1.60;;;1.50;;
44165;SDS011;30476;53.468;9.826;2023-06-04T02:46:14;2.60;;;2.00;;
44165;SDS011;30476;53.468;9.826;2023-06-04T02:48:40;2.30;;;1.90;;
44165;SDS011;30476;53.468;9.826;2023-06-04T02:51:05;1.73;;;1.63;;
44165;SDS011;30476;53.468;9.826;2023-06-04T02:53:35;1.80;;;1.70;;
44165;SDS011;30476;53.468;9.826;2023-06-04T02:56:01;1.60;;;1.50;;
44165;SDS011;30476;53.468;9.826;2023-06-04T02:58:27;1.93;;;1.70;;
44165;SDS011;30476;53.468;9.826;2023-06-04T03:00:54;4.13;;;1.97;;
44165;SDS011;30476;53.468;9.826;2023-06-04T03:03:20;3.07;;;2.00;;
44165;SDS011;30476;53.468;9.826;2023-06-04T03:05:47;1.70;;;1.60;;
44165;SDS011;30476;53.468;9.826;2023-06-04T03:08:13;2.90;;;1.80;;
44165;SDS011;30476;53.468;9.826;2023-06-04T03:10:38;2.20;;;2.00;;
44165;SDS011;30476;53.468;9.826;2023-06-04T03:13:04;2.00;;;1.80;;
44165;SDS011;30476;53.468;9.826;2023-06-04T03:15:30;2.13;;;1.80;;
44165;SDS011;30476;53.468;9.826;2023-06-04T03:17:56;2.30;;;2.10;;
44165;SDS011;30476;53.468;9.826;2023-06-04T03:20:22;3.37;;;2.03;;
44165;SDS011;30476;53.468;9.826;2023-06-04T03:22:50;5.10;;;2.50;;
44165;SDS011;30476;53.468;9.826;2023-06-04T03:25:16;2.00;;;1.90;;
44165;SDS011;30476;53.468;9.826;2023-06-04T03:27:42;1.60;;;1.50;;
44165;SDS011;30476;53.468;9.826;2023-06-04T03:30:08;1.80;;;1.70;;
44165;SDS011;30476;53.468;9.826;2023-06-04T03:32:34;3.63;;;2.20;;
44165;SDS011;30476;53.468;9.826;2023-06-04T03:35:01;2.20;;;2.00;;
44165;SDS011;30476;53.468;9.826;2023-06-04T03:37:26;4.10;;;2.10;;
44165;SDS011;30476;53.468;9.826;2023-06-04T03:39:53;2.07;;;1.70;;
44165;SDS011;30476;53.468;9.826;2023-06-04T03:42:18;2.00;;;1.90;;
44165;SDS011;30476;53.468;9.826;2023-06-04T03:44:44;2.80;;;2.00;;
44165;SDS011;30476;53.468;9.826;2023-06-04T03:47:11;4.50;;;2.20;;
44165;SDS011;30476;53.468;9.826;2023-06-04T03:49:37;3.93;;;2.30;;
44165;SDS011;30476;53.468;9.826;2023-06-04T03:52:02;7.43;;;1.97;;
44165;SDS011;30476;53.468;9.826;2023-06-04T03:54:28;2.07;;;1.97;;
44165;SDS011;30476;53.468;9.826;2023-06-04T03:56:54;2.00;;;1.80;;
44165;SDS011;30476;53.468;9.826;2023-06-04T03:59:20;2.13;;;1.90;;
44165;SDS011;30476;53.468;9.826;2023-06-04T04:01:46;1.83;;;1.70;;
44165;SDS011;30476;53.468;9.826;2023-06-04T04:04:12;3.13;;;1.73;;
44165;SDS011;30476;53.468;9.826;2023-06-04T04:06:38;1.80;;;1.70;;
44165;SDS011;30476;53.468;9.826;2023-06-04T04:09:03;2.50;;;2.03;;
44165;SDS011;30476;53.468;9.826;2023-06-04T04:11:31;2.17;;;1.97;;
44165;SDS011;30476;53.468;9.826;2023-06-04T04:13:56;1.90;;;1.80;;
44165;SDS011;30476;53.468;9.826;2023-06-04T04:16:23;2.40;;;1.80;;
44165;SDS011;30476;53.468;9.826;2023-06-04T04:18:50;2.30;;;2.00;;
44165;SDS011;30476;53.468;9.826;2023-06-04T04:21:15;2.10;;;1.90;;
44165;SDS011;30476;53.468;9.826;2023-06-04T04:23:42;6.90;;;2.90;;
44165;SDS011;30476;53.468;9.826;2023-06-04T04:26:10;1.90;;;1.70;;
44165;SDS011;30476;53.468;9.826;2023-06-04T04:28:35;2.13;;;1.93;;
44165;SDS011;30476;53.468;9.826;2023-06-04T04:31:02;1.70;;;1.60;;
44165;SDS011;30476;53.468;9.826;2023-06-04T04:33:28;4.60;;;2.37;;
44165;SDS011;30476;53.468;9.826;2023-06-04T04:35:58;4.03;;;2.00;;
44165;SDS011;30476;53.468;9.826;2023-06-04T04:38:25;3.57;;;2.97;;
44165;SDS011;30476;53.468;9.826;2023-06-04T04:40:51;3.93;;;2.93;;
44165;SDS011;30476;53.468;9.826;2023-06-04T04:43:33;2.83;;;2.63;;
44165;SDS011;30476;53.468;9.826;2023-06-04T04:46:00;2.07;;;1.97;;
44165;SDS011;30476;53.468;9.826;2023-06-04T04:48:26;2.00;;;1.90;;
44165;SDS011;30476;53.468;9.826;2023-06-04T04:50:52;2.30;;;1.90;;
44165;SDS011;30476;53.468;9.826;2023-06-04T04:53:19;1.83;;;1.73;;
44165;SDS011;30476;53.468;9.826;2023-06-04T04:55:44;2.47;;;1.90;;
44165;SDS011;30476;53.468;9.826;2023-06-04T04:58:10;3.43;;;2.03;;
44165;SDS011;30476;53.468;9.826;2023-06-04T05:00:36;4.17;;;2.07;;
44165;SDS011;30476;53.468;9.826;2023-06-04T05:03:02;2.03;;;1.90;;
44165;SDS011;30476;53.468;9.826;2023-06-04T05:05:27;2.10;;;1.97;;
44165;SDS011;30476;53.468;9.826;2023-06-04T05:07:53;1.93;;;1.60;;
44165;SDS011;30476;53.468;9.826;2023-06-04T05:10:19;2.43;;;2.23;;
44165;SDS011;30476;53.468;9.826;2023-06-04T05:12:54;3.20;;;2.60;;
44165;SDS011;30476;53.468;9.826;2023-06-04T05:15:24;2.80;;;2.33;;
44165;SDS011;30476;53.468;9.826;2023-06-04T05:17:51;2.10;;;1.90;;
44165;SDS011;30476;53.468;9.826;2023-06-04T05:20:18;2.20;;;2.10;;
44165;SDS011;30476;53.468;9.826;2023-06-04T05:22:46;2.13;;;2.03;;
44165;SDS011;30476;53.468;9.826;2023-06-04T05:25:12;3.90;;;2.27;;
44165;SDS011;30476;53.468;9.826;2023-06-04T05:27:39;2.83;;;2.63;;
44165;SDS011;30476;53.468;9.826;2023-06-04T05:30:05;3.10;;;2.90;;
44165;SDS011;30476;53.468;9.826;2023-06-04T05:32:32;3.13;;;2.60;;
44165;SDS011;30476;53.468;9.826;2023-06-04T05:34:58;4.53;;;2.50;;
44165;SDS011;30476;53.468;9.826;2023-06-04T05:37:24;2.53;;;2.03;;
44165;SDS011;30476;53.468;9.826;2023-06-04T05:39:57;2.53;;;2.33;;
44165;SDS011;30476;53.468;9.826;2023-06-04T05:42:23;5.33;;;2.90;;
44165;SDS011;30476;53.468;9.826;2023-06-04T05:44:49;8.70;;;3.23;;
44165;SDS011;30476;53.468;9.826;2023-06-04T05:47:15;3.13;;;2.93;;
44165;SDS011;30476;53.468;9.826;2023-06-04T05:49:44;4.10;;;2.93;;
44165;SDS011;30476;53.468;9.826;2023-06-04T05:52:10;4.07;;;2.40;;
44165;SDS011;30476;53.468;9.826;2023-06-04T05:54:36;3.30;;;2.70;;
44165;SDS011;30476;53.468;9.826;2023-06-04T05:57:04;3.63;;;3.23;;
44165;SDS011;30476;53.468;9.826;2023-06-04T05:59:31;5.97;;;3.20;;
44165;SDS011;30476;53.468;9.826;2023-06-04T06:01:57;4.40;;;3.00;;
44165;SDS011;30476;53.468;9.826;2023-06-04T06:04:23;2.60;;;2.17;;
44165;SDS011;30476;53.468;9.826;2023-06-04T06:06:48;2.83;;;2.50;;
44165;SDS011;30476;53.468;9.826;2023-06-04T06:09:15;4.07;;;2.20;;
44165;SDS011;30476;53.468;9.826;2023-06-04T06:11:41;2.53;;;2.00;;
44165;SDS011;30476;53.468;9.826;2023-06-04T06:14:07;2.70;;;2.50;;
44165;SDS011;30476;53.468;9.826;2023-06-04T06:16:33;3.70;;;2.83;;
44165;SDS011;30476;53.468;9.826;2023-06-04T06:18:59;4.40;;;3.40;;
44165;SDS011;30476;53.468;9.826;2023-06-04T06:21:26;2.50;;;2.17;;
44165;SDS011;30476;53.468;9.826;2023-06-04T06:23:53;2.53;;;2.30;;
44165;SDS011;30476;53.468;9.826;2023-06-04T06:26:19;5.03;;;2.40;;
44165;SDS011;30476;53.468;9.826;2023-06-04T06:28:47;5.53;;;2.43;;
44165;SDS011;30476;53.468;9.826;2023-06-04T06:31:12;3.97;;;2.03;;
44165;SDS011;30476;53.468;9.826;2023-06-04T06:33:38;4.60;;;1.90;;
44165;SDS011;30476;53.468;9.826;2023-06-04T06:36:07;2.77;;;2.00;;
44165;SDS011;30476;53.468;9.826;2023-06-04T06:38:35;2.67;;;1.93;;
44165;SDS011;30476;53.468;9.826;2023-06-04T06:41:00;3.73;;;1.93;;
44165;SDS011;30476;53.468;9.826;2023-06-04T06:43:26;2.10;;;1.60;;
44165;SDS011;30476;53.468;9.826;2023-06-04T06:45:52;2.27;;;1.90;;
44165;SDS011;30476;53.468;9.826;2023-06-04T06:48:18;1.67;;;1.57;;
44165;SDS011;30476;53.468;9.826;2023-06-04T06:50:43;2.70;;;2.30;;
44165;SDS011;30476;53.468;9.826;2023-06-04T06:53:09;1.90;;;1.80;;
44165;SDS011;30476;53.468;9.826;2023-06-04T06:55:35;4.83;;;1.60;;
44165;SDS011;30476;53.468;9.826;2023-06-04T06:58:01;1.70;;;1.60;;
44165;SDS011;30476;53.468;9.826;2023-06-04T07:00:26;4.43;;;1.90;;
44165;SDS011;30476;53.468;9.826;2023-06-04T07:02:55;3.90;;;2.00;;
44165;SDS011;30476;53.468;9.826;2023-06-04T07:05:21;3.00;;;1.43;;
44165;SDS011;30476;53.468;9.826;2023-06-04T07:07:47;3.97;;;1.50;;
44165;SDS011;30476;53.468;9.826;2023-06-04T07:10:13;3.13;;;2.33;;
44165;SDS011;30476;53.468;9.826;2023-06-04T07:12:39;2.70;;;1.63;;
44165;SDS011;30476;53.468;9.826;2023-06-04T07:15:05;1.53;;;1.33;;
44165;SDS011;30476;53.468;9.826;2023-06-04T07:17:33;3.97;;;1.50;;
44165;SDS011;30476;53.468;9.826;2023-06-04T07:19:59;2.57;;;1.67;;
44165;SDS011;30476;53.468;9.826;2023-06-04T07:22:25;2.07;;;1.27;;
44165;SDS011;30476;53.468;9.826;2023-06-04T07:24:51;2.70;;;1.50;;
44165;SDS011;30476;53.468;9.826;2023-06-04T07:27:17;1.70;;;1.40;;
44165;SDS011;30476;53.468;9.826;2023-06-04T07:29:44;1.47;;;1.27;;
44165;SDS011;30476;53.468;9.826;2023-06-04T07:32:10;1.77;;;1.40;;
44165;SDS011;30476;53.468;9.826;2023-06-04T07:34:37;1.90;;;1.33;;
44165;SDS011;30476;53.468;9.826;2023-06-04T07:37:04;2.23;;;1.40;;
44165;SDS011;30476;53.468;9.826;2023-06-04T07:39:30;2.47;;;1.60;;
44165;SDS011;30476;53.468;9.826;2023-06-04T07:41:56;2.90;;;1.17;;
44165;SDS011;30476;53.468;9.826;2023-06-04T07:44:22;2.33;;;1.30;;
44165;SDS011;30476;53.468;9.826;2023-06-04T07:46:48;4.80;;;1.57;;
44165;SDS011;30476;53.468;9.826;2023-06-04T07:49:14;5.23;;;1.73;;
44165;SDS011;30476;53.468;9.826;2023-06-04T07:51:40;1.30;;;1.20;;
44165;SDS011;30476;53.468;9.826;2023-06-04T07:54:06;2.73;;;1.27;;
44165;SDS011;30476;53.468;9.826;2023-06-04T07:56:32;1.80;;;1.53;;
44165;SDS011;30476;53.468;9.826;2023-06-04T07:58:58;2.60;;;1.37;;
44165;SDS011;30476;53.468;9.826;2023-06-04T08:01:24;2.10;;;1.50;;
44165;SDS011;30476;53.468;9.826;2023-06-04T08:03:49;6.30;;;1.73;;
44165;SDS011;30476;53.468;9.826;2023-06-04T08:06:15;1.70;;;1.20;;
44165;SDS011;30476;53.468;9.826;2023-06-04T08:08:42;3.10;;;1.10;;
44165;SDS011;30476;53.468;9.826;2023-06-04T08:11:11;1.50;;;1.20;;
44165;SDS011;30476;53.468;9.826;2023-06-04T08:13:37;1.87;;;1.00;;
44165;SDS011;30476;53.468;9.826;2023-06-04T08:16:04;1.57;;;1.40;;
44165;SDS011;30476;53.468;9.826;2023-06-04T08:18:30;1.33;;;1.23;;
44165;SDS011;30476;53.468;9.826;2023-06-04T08:20:56;2.00;;;1.03;;
44165;SDS011;30476;53.468;9.826;2023-06-04T08:23:21;2.23;;;1.20;;
44165;SDS011;30476;53.468;9.826;2023-06-04T08:25:47;1.47;;;1.07;;
44165;SDS011;30476;53.468;9.826;2023-06-04T08:28:13;2.67;;;1.23;;
44165;SDS011;30476;53.468;9.826;2023-06-04T08:30:41;2.13;;;1.40;;
44165;SDS011;30476;53.468;9.826;2023-06-04T08:33:07;5.47;;;1.50;;
44165;SDS011;30476;53.468;9.826;2023-06-04T08:35:33;3.63;;;1.50;;
44165;SDS011;30476;53.468;9.826;2023-06-04T08:37:58;1.20;;;1.10;;
44165;SDS011;30476;53.468;9.826;2023-06-04T08:40:24;2.07;;;0.97;;
44165;SDS011;30476;53.468;9.826;2023-06-04T08:42:51;1.87;;;1.00;;
44165;SDS011;30476;53.468;9.826;2023-06-04T08:45:23;2.83;;;1.20;;
44165;SDS011;30476;53.468;9.826;2023-06-04T08:47:50;1.67;;;1.00;;
44165;SDS011;30476;53.468;9.826;2023-06-04T08:50:17;1.93;;;1.60;;
44165;SDS011;30476;53.468;9.826;2023-06-04T08:52:44;3.37;;;1.97;;
44165;SDS011;30476;53.468;9.826;2023-06-04T08:55:13;2.37;;;1.30;;
44165;SDS011;30476;53.468;9.826;2023-06-04T08:57:39;1.40;;;1.20;;
44165;SDS011;30476;53.468;9.826;2023-06-04T09:00:08;2.60;;;1.40;;
44165;SDS011;30476;53.468;9.826;2023-06-04T09:02:35;1.10;;;1.00;;
44165;SDS011;30476;53.468;9.826;2023-06-04T09:05:03;2.27;;;1.27;;
44165;SDS011;30476;53.468;9.826;2023-06-04T09:07:33;3.13;;;1.30;;
44165;SDS011;30476;53.468;9.826;2023-06-04T09:10:01;1.90;;;1.20;;
44165;SDS011;30476;53.468;9.826;2023-06-04T09:12:27;1.13;;;1.00;;
44165;SDS011;30476;53.468;9.826;2023-06-04T09:14:54;2.37;;;1.30;;
44165;SDS011;30476;53.468;9.826;2023-06-04T09:17:21;3.83;;;1.30;;
44165;SDS011;30476;53.468;9.826;2023-06-04T09:19:48;1.30;;;1.10;;
44165;SDS011;30476;53.468;9.826;2023-06-04T09:22:15;1.20;;;1.10;;
44165;SDS011;30476;53.468;9.826;2023-06-04T09:24:45;3.10;;;1.50;;
44165;SDS011;30476;53.468;9.826;2023-06-04T09:27:16;2.33;;;1.20;;
44165;SDS011;30476;53.468;9.826;2023-06-04T09:29:52;1.87;;;1.00;;
44165;SDS011;30476;53.468;9.826;2023-06-04T09:34:55;1.53;;;1.10;;
44165;SDS011;30476;53.468;9.826;2023-06-04T09:37:22;1.10;;;1.00;;
44165;SDS011;30476;53.468;9.826;2023-06-04T09:39:54;1.50;;;1.03;;
44165;SDS011;30476;53.468;9.826;2023-06-04T09:42:21;1.37;;;1.20;;
44165;SDS011;30476;53.468;9.826;2023-06-04T09:44:50;1.40;;;1.00;;
44165;SDS011;30476;53.468;9.826;2023-06-04T09:47:16;1.30;;;1.20;;
44165;SDS011;30476;53.468;9.826;2023-06-04T09:52:07;4.37;;;1.50;;
44165;SDS011;30476;53.468;9.826;2023-06-04T09:54:35;1.80;;;1.10;;
44165;SDS011;30476;53.468;9.826;2023-06-04T09:57:14;1.63;;;0.87;;
44165;SDS011;30476;53.468;9.826;2023-06-04T09:59:41;1.20;;;1.10;;
44165;SDS011;30476;53.468;9.826;2023-06-04T10:02:11;1.37;;;1.20;;
44165;SDS011;30476;53.468;9.826;2023-06-04T10:04:40;1.10;;;1.00;;
44165;SDS011;30476;53.468;9.826;2023-06-04T10:07:11;1.00;;;1.00;;
44165;SDS011;30476;53.468;9.826;2023-06-04T10:09:42;2.40;;;1.10;;
44165;SDS011;30476;53.468;9.826;2023-06-04T10:12:14;1.07;;;0.83;;
44165;SDS011;30476;53.468;9.826;2023-06-04T10:14:41;3.67;;;1.30;;
44165;SDS011;30476;53.468;9.826;2023-06-04T10:17:17;1.83;;;1.50;;
44165;SDS011;30476;53.468;9.826;2023-06-04T10:19:47;1.53;;;1.20;;
44165;SDS011;30476;53.468;9.826;2023-06-04T10:22:14;1.33;;;1.23;;
44165;SDS011;30476;53.468;9.826;2023-06-04T10:24:40;0.83;;;0.83;;
44165;SDS011;30476;53.468;9.826;2023-06-04T10:27:06;0.80;;;0.80;;
44165;SDS011;30476;53.468;9.826;2023-06-04T10:29:36;2.70;;;1.20;;
44165;SDS011;30476;53.468;9.826;2023-06-04T10:32:02;0.97;;;0.97;;
44165;SDS011;30476;53.468;9.826;2023-06-04T10:34:29;1.33;;;0.97;;
44165;SDS011;30476;53.468;9.826;2023-06-04T10:36:56;2.80;;;0.90;;
44165;SDS011;30476;53.468;9.826;2023-06-04T10:39:25;1.63;;;1.10;;
44165;SDS011;30476;53.468;9.826;2023-06-04T10:42:01;1.40;;;0.97;;
44165;SDS011;30476;53.468;9.826;2023-06-04T10:44:32;4.90;;;1.57;;
44165;SDS011;30476;53.468;9.826;2023-06-04T10:47:17;1.17;;;1.07;;
44165;SDS011;30476;53.468;9.826;2023-06-04T10:49:47;2.00;;;0.90;;
44165;SDS011;30476;53.468;9.826;2023-06-04T10:52:14;2.20;;;1.10;;
44165;SDS011;30476;53.468;9.826;2023-06-04T10:54:41;2.20;;;1.20;;
44165;SDS011;30476;53.468;9.826;2023-06-04T10:57:11;2.03;;;0.90;;
44165;SDS011;30476;53.468;9.826;2023-06-04T10:59:38;1.17;;;1.07;;
44165;SDS011;30476;53.468;9.826;2023-06-04T11:02:04;1.10;;;1.00;;
44165;SDS011;30476;53.468;9.826;2023-06-04T11:04:31;1.00;;;0.90;;
44165;SDS011;30476;53.468;9.826;2023-06-04T11:07:07;1.40;;;0.93;;
44165;SDS011;30476;53.468;9.826;2023-06-04T11:09:48;3.73;;;1.07;;
44165;SDS011;30476;53.468;9.826;2023-06-04T11:12:15;1.93;;;1.00;;
44165;SDS011;30476;53.468;9.826;2023-06-04T11:14:41;1.20;;;0.93;;
44165;SDS011;30476;53.468;9.826;2023-06-04T11:17:18;1.10;;;1.00;;
44165;SDS011;30476;53.468;9.826;2023-06-04T11:19:44;1.63;;;1.00;;
44165;SDS011;30476;53.468;9.826;2023-06-04T11:22:12;1.97;;;1.20;;
44165;SDS011;30476;53.468;9.826;2023-06-04T11:24:38;1.20;;;0.90;;
44165;SDS011;30476;53.468;9.826;2023-06-04T11:27:04;1.33;;;1.10;;
44165;SDS011;30476;53.468;9.826;2023-06-04T11:29:30;1.97;;;1.87;;
44165;SDS011;30476;53.468;9.826;2023-06-04T11:31:56;1.87;;;1.70;;
44165;SDS011;30476;53.468;9.826;2023-06-04T11:34:26;1.70;;;1.13;;
44165;SDS011;30476;53.468;9.826;2023-06-04T11:36:53;1.87;;;1.00;;
44165;SDS011;30476;53.468;9.826;2023-06-04T11:39:19;1.90;;;0.97;;
44165;SDS011;30476;53.468;9.826;2023-06-04T11:41:45;2.03;;;1.00;;
44165;SDS011;30476;53.468;9.826;2023-06-04T11:44:12;1.30;;;1.20;;
44165;SDS011;30476;53.468;9.826;2023-06-04T11:46:41;2.03;;;1.20;;
44165;SDS011;30476;53.468;9.826;2023-06-04T11:49:16;1.70;;;1.00;;
44165;SDS011;30476;53.468;9.826;2023-06-04T11:51:50;1.03;;;0.93;;
44165;SDS011;30476;53.468;9.826;2023-06-04T11:54:17;1.30;;;1.20;;
44165;SDS011;30476;53.468;9.826;2023-06-04T11:56:48;2.20;;;0.90;;
44165;SDS011;30476;53.468;9.826;2023-06-04T11:59:15;2.10;;;1.90;;
44165;SDS011;30476;53.468;9.826;2023-06-04T12:01:42;1.47;;;1.10;;
44165;SDS011;30476;53.468;9.826;2023-06-04T12:04:15;1.80;;;1.70;;
44165;SDS011;30476;53.468;9.826;2023-06-04T12:06:55;1.60;;;1.50;;
44165;SDS011;30476;53.468;9.826;2023-06-04T12:09:30;1.20;;;1.10;;
44165;SDS011;30476;53.468;9.826;2023-06-04T12:11:58;1.80;;;0.90;;
44165;SDS011;30476;53.468;9.826;2023-06-04T12:14:25;1.17;;;1.07;;
44165;SDS011;30476;53.468;9.826;2023-06-04T12:16:55;1.17;;;0.90;;
44165;SDS011;30476;53.468;9.826;2023-06-04T12:19:21;4.67;;;1.00;;
44165;SDS011;30476;53.468;9.826;2023-06-04T12:21:47;1.20;;;1.07;;
44165;SDS011;30476;53.468;9.826;2023-06-04T12:24:27;2.90;;;1.00;;
44165;SDS011;30476;53.468;9.826;2023-06-04T12:27:00;0.80;;;0.80;;
44165;SDS011;30476;53.468;9.826;2023-06-04T12:29:31;1.77;;;1.10;;
44165;SDS011;30476;53.468;9.826;2023-06-04T12:32:06;1.20;;;0.90;;
44165;SDS011;30476;53.468;9.826;2023-06-04T12:34:36;1.70;;;1.53;;
44165;SDS011;30476;53.468;9.826;2023-06-04T12:37:03;1.77;;;1.00;;
44165;SDS011;30476;53.468;9.826;2023-06-04T12:39:31;1.20;;;1.00;;
44165;SDS011;30476;53.468;9.826;2023-06-04T12:42:02;1.10;;;0.90;;
44165;SDS011;30476;53.468;9.826;2023-06-04T12:44:31;1.00;;;0.83;;
44165;SDS011;30476;53.468;9.826;2023-06-04T12:46:57;1.10;;;1.00;;
44165;SDS011;30476;53.468;9.826;2023-06-04T12:49:22;1.53;;;0.90;;
44165;SDS011;30476;53.468;9.826;2023-06-04T12:51:48;1.67;;;1.57;;
44165;SDS011;30476;53.468;9.826;2023-06-04T12:54:14;2.50;;;1.67;;
44165;SDS011;30476;53.468;9.826;2023-06-04T12:56:40;2.60;;;1.57;;
44165;SDS011;30476;53.468;9.826;2023-06-04T12:59:06;1.10;;;1.00;;
44165;SDS011;30476;53.468;9.826;2023-06-04T13:01:32;1.20;;;1.10;;
44165;SDS011;30476;53.468;9.826;2023-06-04T13:03:58;1.60;;;1.50;;
44165;SDS011;30476;53.468;9.826;2023-06-04T13:06:24;4.10;;;1.20;;
44165;SDS011;30476;53.468;9.826;2023-06-04T13:08:51;1.30;;;1.10;;
44165;SDS011;30476;53.468;9.826;2023-06-04T13:11:17;0.90;;;0.90;;
44165;SDS011;30476;53.468;9.826;2023-06-04T13:13:43;1.10;;;1.00;;
44165;SDS011;30476;53.468;9.826;2023-06-04T13:16:09;1.10;;;0.90;;
44165;SDS011;30476;53.468;9.826;2023-06-04T13:18:34;2.40;;;1.00;;
44165;SDS011;30476;53.468;9.826;2023-06-04T13:21:00;1.43;;;1.00;;
44165;SDS011;30476;53.468;9.826;2023-06-04T13:23:27;3.70;;;2.17;;
44165;SDS011;30476;53.468;9.826;2023-06-04T13:25:53;1.30;;;1.20;;
44165;SDS011;30476;53.468;9.826;2023-06-04T13:28:19;1.37;;;1.07;;
44165;SDS011;30476;53.468;9.826;2023-06-04T13:30:45;1.10;;;1.00;;
44165;SDS011;30476;53.468;9.826;2023-06-04T13:33:11;1.30;;;0.90;;
44165;SDS011;30476;53.468;9.826;2023-06-04T13:35:37;1.10;;;1.00;;
44165;SDS011;30476;53.468;9.826;2023-06-04T13:38:04;1.40;;;1.30;;
44165;SDS011;30476;53.468;9.826;2023-06-04T13:40:34;2.33;;;1.10;;
44165;SDS011;30476;53.468;9.826;2023-06-04T13:43:00;1.70;;;1.60;;
44165;SDS011;30476;53.468;9.826;2023-06-04T13:45:26;2.77;;;1.60;;
44165;SDS011;30476;53.468;9.826;2023-06-04T13:47:52;1.60;;;1.20;;
44165;SDS011;30476;53.468;9.826;2023-06-04T13:50:18;1.30;;;1.20;;
44165;SDS011;30476;53.468;9.826;2023-06-04T13:52:44;1.13;;;1.00;;
44165;SDS011;30476;53.468;9.826;2023-06-04T13:55:11;1.10;;;1.00;;
44165;SDS011;30476;53.468;9.826;2023-06-04T13:57:37;4.43;;;1.00;;
44165;SDS011;30476;53.468;9.826;2023-06-04T14:00:03;0.90;;;0.83;;
44165;SDS011;30476;53.468;9.826;2023-06-04T14:02:30;1.20;;;1.10;;
44165;SDS011;30476;53.468;9.826;2023-06-04T14:04:55;1.37;;;0.90;;
44165;SDS011;30476;53.468;9.826;2023-06-04T14:07:22;3.27;;;1.00;;
44165;SDS011;30476;53.468;9.826;2023-06-04T14:09:47;1.53;;;1.00;;
44165;SDS011;30476;53.468;9.826;2023-06-04T14:12:14;1.43;;;1.33;;
44165;SDS011;30476;53.468;9.826;2023-06-04T14:14:43;1.70;;;1.20;;
44165;SDS011;30476;53.468;9.826;2023-06-04T14:17:09;2.07;;;1.03;;
44165;SDS011;30476;53.468;9.826;2023-06-04T14:19:35;3.03;;;1.10;;
44165;SDS011;30476;53.468;9.826;2023-06-04T14:22:01;2.07;;;1.10;;
44165;SDS011;30476;53.468;9.826;2023-06-04T14:24:27;1.37;;;1.00;;
44165;SDS011;30476;53.468;9.826;2023-06-04T14:26:53;3.90;;;1.17;;
44165;SDS011;30476;53.468;9.826;2023-06-04T14:29:19;2.67;;;1.17;;
44165;SDS011;30476;53.468;9.826;2023-06-04T14:31:45;1.20;;;1.10;;
44165;SDS011;30476;53.468;9.826;2023-06-04T14:34:11;1.20;;;1.10;;
44165;SDS011;30476;53.468;9.826;2023-06-04T14:36:36;1.23;;;1.10;;
44165;SDS011;30476;53.468;9.826;2023-06-04T14:39:02;1.10;;;1.00;;
44165;SDS011;30476;53.468;9.826;2023-06-04T14:41:28;1.40;;;0.90;;
44165;SDS011;30476;53.468;9.826;2023-06-04T14:43:54;1.20;;;1.10;;
44165;SDS011;30476;53.468;9.826;2023-06-04T14:46:19;1.20;;;1.10;;
44165;SDS011;30476;53.468;9.826;2023-06-04T14:48:45;1.33;;;1.10;;
44165;SDS011;30476;53.468;9.826;2023-06-04T14:51:11;1.07;;;0.97;;
44165;SDS011;30476;53.468;9.826;2023-06-04T14:53:37;3.03;;;1.17;;
44165;SDS011;30476;53.468;9.826;2023-06-04T14:56:06;1.20;;;1.10;;
44165;SDS011;30476;53.468;9.826;2023-06-04T14:58:32;2.37;;;0.90;;